sensor_id;sensor_type;location;lat;lon;timestamp;P1;durP1;ratioP1;P2;durP2;ratioP2
64712;SDS011;51140;45.340;5.980;2023-01-05T00:00:47;10.35;;;5.72;;
64712;SDS011;51140;45.340;5.980;2023-01-05T00:03:13;11.05;;;5.47;;
64712;SDS011;51140;45.340;5.980;2023-01-05T00:05:38;9.82;;;4.13;;
64712;SDS011;51140;45.340;5.980;2023-01-05T00:08:03;8.50;;;3.40;;
64712;SDS011;51140;45.340;5.980;2023-01-05T00:10:29;9.50;;;3.38;;
64712;SDS011;51140;45.340;5.980;2023-01-05T00:13:13;8.10;;;3.33;;
64712;SDS011;51140;45.340;5.980;2023-01-05T00:16:00;6.95;;;3.10;;
64712;SDS011;51140;45.340;5.980;2023-01-05T00:18:44;9.25;;;2.95;;
64712;SDS011;51140;45.340;5.980;2023-01-05T00:21:28;11.77;;;5.63;;
64712;SDS011;51140;45.340;5.980;2023-01-05T00:24:12;11.40;;;4.88;;
64712;SDS011;51140;45.340;5.980;2023-01-05T00:26:37;10.15;;;4.60;;
64712;SDS011;51140;45.340;5.980;2023-01-05T00:29:02;11.82;;;5.03;;
64712;SDS011;51140;45.340;5.980;2023-01-05T00:31:28;11.38;;;5.57;;
64712;SDS011;51140;45.340;5.980;2023-01-05T00:33:53;10.90;;;5.45;;
64712;SDS011;51140;45.340;5.980;2023-01-05T00:36:18;8.85;;;4.18;;
64712;SDS011;51140;45.340;5.980;2023-01-05T00:38:44;11.32;;;4.38;;
64712;SDS011;51140;45.340;5.980;2023-01-05T00:41:09;10.20;;;4.20;;
64712;SDS011;51140;45.340;5.980;2023-01-05T00:43:34;9.35;;;4.28;;
64712;SDS011;51140;45.340;5.980;2023-01-05T00:46:01;8.85;;;4.25;;
64712;SDS011;51140;45.340;5.980;2023-01-05T00:48:26;11.13;;;4.45;;
64712;SDS011;51140;45.340;5.980;2023-01-05T00:50:52;9.30;;;4.68;;
64712;SDS011;51140;45.340;5.980;2023-01-05T00:53:17;9.00;;;4.22;;
64712;SDS011;51140;45.340;5.980;2023-01-05T00:55:42;7.72;;;3.67;;
64712;SDS011;51140;45.340;5.980;2023-01-05T00:58:08;6.65;;;3.00;;
64712;SDS011;51140;45.340;5.980;2023-01-05T01:00:33;6.47;;;2.80;;
64712;SDS011;51140;45.340;5.980;2023-01-05T01:02:58;10.13;;;4.75;;
64712;SDS011;51140;45.340;5.980;2023-01-05T01:05:24;10.55;;;3.80;;
64712;SDS011;51140;45.340;5.980;2023-01-05T01:07:49;9.02;;;4.22;;
64712;SDS011;51140;45.340;5.980;2023-01-05T01:10:15;9.65;;;4.80;;
64712;SDS011;51140;45.340;5.980;2023-01-05T01:12:40;9.93;;;4.63;;
64712;SDS011;51140;45.340;5.980;2023-01-05T01:15:06;11.05;;;4.70;;
64712;SDS011;51140;45.340;5.980;2023-01-05T01:17:33;11.00;;;5.15;;
64712;SDS011;51140;45.340;5.980;2023-01-05T01:19:58;13.15;;;5.80;;
64712;SDS011;51140;45.340;5.980;2023-01-05T01:22:24;13.82;;;5.63;;
64712;SDS011;51140;45.340;5.980;2023-01-05T01:24:50;10.60;;;5.13;;
64712;SDS011;51140;45.340;5.980;2023-01-05T01:27:16;12.02;;;5.80;;
64712;SDS011;51140;45.340;5.980;2023-01-05T01:29:41;11.27;;;4.97;;
64712;SDS011;51140;45.340;5.980;2023-01-05T01:32:07;10.43;;;5.25;;
64712;SDS011;51140;45.340;5.980;2023-01-05T01:34:32;11.35;;;5.45;;
64712;SDS011;51140;45.340;5.980;2023-01-05T01:36:57;14.45;;;6.03;;
64712;SDS011;51140;45.340;5.980;2023-01-05T01:39:24;10.82;;;6.25;;
64712;SDS011;51140;45.340;5.980;2023-01-05T01:41:49;11.95;;;6.35;;
64712;SDS011;51140;45.340;5.980;2023-01-05T01:50:02;11.57;;;5.93;;
64712;SDS011;51140;45.340;5.980;2023-01-05T01:52:31;12.77;;;6.75;;
64712;SDS011;51140;45.340;5.980;2023-01-05T01:54:58;12.80;;;6.65;;
64712;SDS011;51140;45.340;5.980;2023-01-05T01:57:26;14.32;;;7.38;;
64712;SDS011;51140;45.340;5.980;2023-01-05T01:59:52;12.88;;;7.18;;
64712;SDS011;51140;45.340;5.980;2023-01-05T02:02:19;12.38;;;6.63;;
64712;SDS011;51140;45.340;5.980;2023-01-05T02:04:46;12.52;;;6.90;;
64712;SDS011;51140;45.340;5.980;2023-01-05T02:07:12;13.50;;;7.22;;
64712;SDS011;51140;45.340;5.980;2023-01-05T02:09:40;14.13;;;6.93;;
64712;SDS011;51140;45.340;5.980;2023-01-05T02:20:39;12.25;;;6.80;;
64712;SDS011;51140;45.340;5.980;2023-01-05T02:31:33;13.30;;;7.35;;
64712;SDS011;51140;45.340;5.980;2023-01-05T02:36:37;20.25;;;8.18;;
64712;SDS011;51140;45.340;5.980;2023-01-05T02:39:16;17.45;;;8.82;;
64712;SDS011;51140;45.340;5.980;2023-01-05T02:44:16;15.20;;;7.57;;
64712;SDS011;51140;45.340;5.980;2023-01-05T02:46:43;14.90;;;8.18;;
64712;SDS011;51140;45.340;5.980;2023-01-05T02:49:09;17.42;;;8.80;;
64712;SDS011;51140;45.340;5.980;2023-01-05T02:51:37;17.27;;;8.07;;
64712;SDS011;51140;45.340;5.980;2023-01-05T02:54:09;20.58;;;9.35;;
64712;SDS011;51140;45.340;5.980;2023-01-05T02:56:42;17.80;;;9.20;;
64712;SDS011;51140;45.340;5.980;2023-01-05T02:59:44;18.02;;;9.18;;
64712;SDS011;51140;45.340;5.980;2023-01-05T03:02:26;18.95;;;9.38;;
64712;SDS011;51140;45.340;5.980;2023-01-05T03:04:57;15.88;;;8.85;;
64712;SDS011;51140;45.340;5.980;2023-01-05T03:07:29;16.45;;;8.63;;
64712;SDS011;51140;45.340;5.980;2023-01-05T03:09:57;18.02;;;9.05;;
64712;SDS011;51140;45.340;5.980;2023-01-05T03:12:42;19.70;;;8.48;;
64712;SDS011;51140;45.340;5.980;2023-01-05T03:15:30;16.13;;;8.70;;
64712;SDS011;51140;45.340;5.980;2023-01-05T03:17:59;17.52;;;9.15;;
64712;SDS011;51140;45.340;5.980;2023-01-05T03:20:30;18.55;;;9.00;;
64712;SDS011;51140;45.340;5.980;2023-01-05T03:22:57;18.17;;;8.75;;
64712;SDS011;51140;45.340;5.980;2023-01-05T03:25:45;15.63;;;8.70;;
64712;SDS011;51140;45.340;5.980;2023-01-05T03:28:35;16.23;;;9.27;;
64712;SDS011;51140;45.340;5.980;2023-01-05T03:31:28;16.25;;;8.38;;
64712;SDS011;51140;45.340;5.980;2023-01-05T03:37:39;16.80;;;8.85;;
64712;SDS011;51140;45.340;5.980;2023-01-05T03:40:31;17.48;;;9.73;;
64712;SDS011;51140;45.340;5.980;2023-01-05T03:42:56;15.23;;;8.18;;
64712;SDS011;51140;45.340;5.980;2023-01-05T03:45:26;15.65;;;8.65;;
64712;SDS011;51140;45.340;5.980;2023-01-05T03:47:56;17.87;;;9.20;;
64712;SDS011;51140;45.340;5.980;2023-01-05T03:50:22;16.05;;;9.00;;
64712;SDS011;51140;45.340;5.980;2023-01-05T03:52:47;16.40;;;9.10;;
64712;SDS011;51140;45.340;5.980;2023-01-05T03:55:12;17.70;;;9.40;;
64712;SDS011;51140;45.340;5.980;2023-01-05T03:57:38;18.98;;;9.20;;
64712;SDS011;51140;45.340;5.980;2023-01-05T04:00:03;18.80;;;9.38;;
64712;SDS011;51140;45.340;5.980;2023-01-05T04:02:30;18.10;;;8.98;;
64712;SDS011;51140;45.340;5.980;2023-01-05T04:04:55;16.00;;;8.40;;
64712;SDS011;51140;45.340;5.980;2023-01-05T04:07:20;15.38;;;8.57;;
64712;SDS011;51140;45.340;5.980;2023-01-05T04:09:46;15.68;;;8.30;;
64712;SDS011;51140;45.340;5.980;2023-01-05T04:12:11;13.40;;;7.13;;
64712;SDS011;51140;45.340;5.980;2023-01-05T04:14:36;14.32;;;7.93;;
64712;SDS011;51140;45.340;5.980;2023-01-05T04:17:02;16.10;;;8.85;;
64712;SDS011;51140;45.340;5.980;2023-01-05T04:19:27;15.57;;;8.40;;
64712;SDS011;51140;45.340;5.980;2023-01-05T04:21:53;13.93;;;7.63;;
64712;SDS011;51140;45.340;5.980;2023-01-05T04:24:18;15.57;;;7.85;;
64712;SDS011;51140;45.340;5.980;2023-01-05T04:26:44;15.65;;;7.70;;
64712;SDS011;51140;45.340;5.980;2023-01-05T04:29:09;15.93;;;8.00;;
64712;SDS011;51140;45.340;5.980;2023-01-05T04:31:35;14.30;;;7.72;;
64712;SDS011;51140;45.340;5.980;2023-01-05T04:34:00;14.60;;;7.53;;
64712;SDS011;51140;45.340;5.980;2023-01-05T04:36:26;14.70;;;7.45;;
64712;SDS011;51140;45.340;5.980;2023-01-05T04:38:51;14.75;;;7.45;;
64712;SDS011;51140;45.340;5.980;2023-01-05T04:41:17;13.70;;;7.55;;
64712;SDS011;51140;45.340;5.980;2023-01-05T04:43:42;14.57;;;7.22;;
64712;SDS011;51140;45.340;5.980;2023-01-05T04:46:08;13.55;;;7.40;;
64712;SDS011;51140;45.340;5.980;2023-01-05T04:48:33;13.23;;;7.13;;
64712;SDS011;51140;45.340;5.980;2023-01-05T04:50:59;11.88;;;6.25;;
64712;SDS011;51140;45.340;5.980;2023-01-05T04:53:24;14.02;;;7.15;;
64712;SDS011;51140;45.340;5.980;2023-01-05T04:55:50;13.85;;;7.13;;
64712;SDS011;51140;45.340;5.980;2023-01-05T04:58:16;13.40;;;6.82;;
64712;SDS011;51140;45.340;5.980;2023-01-05T05:00:42;12.98;;;6.00;;
64712;SDS011;51140;45.340;5.980;2023-01-05T05:03:07;11.43;;;6.07;;
64712;SDS011;51140;45.340;5.980;2023-01-05T05:05:32;11.27;;;6.00;;
64712;SDS011;51140;45.340;5.980;2023-01-05T05:07:58;14.68;;;7.05;;
64712;SDS011;51140;45.340;5.980;2023-01-05T05:10:23;12.32;;;6.18;;
64712;SDS011;51140;45.340;5.980;2023-01-05T05:12:49;14.23;;;6.28;;
64712;SDS011;51140;45.340;5.980;2023-01-05T05:15:14;13.65;;;6.63;;
64712;SDS011;51140;45.340;5.980;2023-01-05T05:17:40;11.43;;;6.28;;
64712;SDS011;51140;45.340;5.980;2023-01-05T05:20:05;11.00;;;5.78;;
64712;SDS011;51140;45.340;5.980;2023-01-05T05:22:31;12.13;;;6.47;;
64712;SDS011;51140;45.340;5.980;2023-01-05T05:24:57;13.50;;;6.43;;
64712;SDS011;51140;45.340;5.980;2023-01-05T05:27:22;14.40;;;7.30;;
64712;SDS011;51140;45.340;5.980;2023-01-05T05:29:47;15.75;;;7.22;;
64712;SDS011;51140;45.340;5.980;2023-01-05T05:32:13;12.80;;;6.55;;
64712;SDS011;51140;45.340;5.980;2023-01-05T05:34:38;13.32;;;6.35;;
64712;SDS011;51140;45.340;5.980;2023-01-05T05:37:04;12.77;;;6.47;;
64712;SDS011;51140;45.340;5.980;2023-01-05T05:39:29;14.88;;;7.47;;
64712;SDS011;51140;45.340;5.980;2023-01-05T05:41:55;13.93;;;7.20;;
64712;SDS011;51140;45.340;5.980;2023-01-05T05:44:20;13.30;;;7.22;;
64712;SDS011;51140;45.340;5.980;2023-01-05T05:46:45;15.18;;;7.20;;
64712;SDS011;51140;45.340;5.980;2023-01-05T05:49:11;14.50;;;7.25;;
64712;SDS011;51140;45.340;5.980;2023-01-05T05:51:37;14.85;;;7.40;;
64712;SDS011;51140;45.340;5.980;2023-01-05T05:54:02;14.43;;;7.40;;
64712;SDS011;51140;45.340;5.980;2023-01-05T05:56:28;13.50;;;6.82;;
64712;SDS011;51140;45.340;5.980;2023-01-05T05:58:54;13.77;;;6.90;;
64712;SDS011;51140;45.340;5.980;2023-01-05T06:01:19;12.20;;;6.43;;
64712;SDS011;51140;45.340;5.980;2023-01-05T06:03:44;12.65;;;6.90;;
64712;SDS011;51140;45.340;5.980;2023-01-05T06:06:10;15.43;;;7.30;;
64712;SDS011;51140;45.340;5.980;2023-01-05T06:08:35;17.13;;;7.72;;
64712;SDS011;51140;45.340;5.980;2023-01-05T06:11:01;12.98;;;7.00;;
64712;SDS011;51140;45.340;5.980;2023-01-05T06:13:26;15.40;;;7.93;;
64712;SDS011;51140;45.340;5.980;2023-01-05T06:15:52;14.65;;;7.53;;
64712;SDS011;51140;45.340;5.980;2023-01-05T06:18:17;48.72;;;29.70;;
64712;SDS011;51140;45.340;5.980;2023-01-05T06:20:43;35.90;;;21.58;;
64712;SDS011;51140;45.340;5.980;2023-01-05T06:23:08;17.05;;;9.10;;
64712;SDS011;51140;45.340;5.980;2023-01-05T06:25:34;13.43;;;6.85;;
64712;SDS011;51140;45.340;5.980;2023-01-05T06:27:59;13.63;;;7.20;;
64712;SDS011;51140;45.340;5.980;2023-01-05T06:30:25;13.85;;;6.50;;
64712;SDS011;51140;45.340;5.980;2023-01-05T06:32:51;13.05;;;6.28;;
64712;SDS011;51140;45.340;5.980;2023-01-05T06:35:16;13.02;;;6.05;;
64712;SDS011;51140;45.340;5.980;2023-01-05T06:37:42;11.85;;;6.43;;
64712;SDS011;51140;45.340;5.980;2023-01-05T06:40:07;12.65;;;6.63;;
64712;SDS011;51140;45.340;5.980;2023-01-05T06:42:35;14.45;;;7.38;;
64712;SDS011;51140;45.340;5.980;2023-01-05T06:45:02;12.68;;;6.60;;
64712;SDS011;51140;45.340;5.980;2023-01-05T06:47:28;14.02;;;8.05;;
64712;SDS011;51140;45.340;5.980;2023-01-05T06:49:53;14.20;;;7.57;;
64712;SDS011;51140;45.340;5.980;2023-01-05T06:52:18;13.20;;;7.10;;
64712;SDS011;51140;45.340;5.980;2023-01-05T06:54:44;15.70;;;7.68;;
64712;SDS011;51140;45.340;5.980;2023-01-05T06:57:09;14.43;;;7.88;;
64712;SDS011;51140;45.340;5.980;2023-01-05T06:59:35;17.17;;;8.35;;
64712;SDS011;51140;45.340;5.980;2023-01-05T07:02:00;12.02;;;6.93;;
64712;SDS011;51140;45.340;5.980;2023-01-05T07:04:26;13.45;;;7.82;;
64712;SDS011;51140;45.340;5.980;2023-01-05T07:06:51;14.00;;;7.68;;
64712;SDS011;51140;45.340;5.980;2023-01-05T07:09:17;14.25;;;8.05;;
64712;SDS011;51140;45.340;5.980;2023-01-05T07:11:42;16.60;;;8.68;;
64712;SDS011;51140;45.340;5.980;2023-01-05T07:14:07;13.30;;;6.70;;
64712;SDS011;51140;45.340;5.980;2023-01-05T07:16:33;13.98;;;7.40;;
64712;SDS011;51140;45.340;5.980;2023-01-05T07:18:58;11.90;;;5.65;;
64712;SDS011;51140;45.340;5.980;2023-01-05T07:21:24;11.85;;;5.97;;
64712;SDS011;51140;45.340;5.980;2023-01-05T07:23:49;13.32;;;5.38;;
64712;SDS011;51140;45.340;5.980;2023-01-05T07:26:14;10.35;;;5.65;;
64712;SDS011;51140;45.340;5.980;2023-01-05T07:28:40;11.85;;;5.85;;
64712;SDS011;51140;45.340;5.980;2023-01-05T07:31:05;11.30;;;5.32;;
64712;SDS011;51140;45.340;5.980;2023-01-05T07:33:31;13.63;;;4.82;;
64712;SDS011;51140;45.340;5.980;2023-01-05T07:36:00;10.75;;;6.03;;
64712;SDS011;51140;45.340;5.980;2023-01-05T07:38:27;9.52;;;4.18;;
64712;SDS011;51140;45.340;5.980;2023-01-05T07:40:52;11.75;;;4.25;;
64712;SDS011;51140;45.340;5.980;2023-01-05T07:43:18;8.35;;;3.92;;
64712;SDS011;51140;45.340;5.980;2023-01-05T07:45:43;6.63;;;2.67;;
64712;SDS011;51140;45.340;5.980;2023-01-05T07:48:09;7.28;;;2.40;;
64712;SDS011;51140;45.340;5.980;2023-01-05T07:50:34;7.05;;;3.95;;
64712;SDS011;51140;45.340;5.980;2023-01-05T07:52:59;6.30;;;2.42;;
64712;SDS011;51140;45.340;5.980;2023-01-05T07:55:25;8.18;;;3.55;;
64712;SDS011;51140;45.340;5.980;2023-01-05T07:57:51;7.63;;;3.28;;
64712;SDS011;51140;45.340;5.980;2023-01-05T08:00:16;9.35;;;3.40;;
64712;SDS011;51140;45.340;5.980;2023-01-05T08:02:42;6.72;;;3.10;;
64712;SDS011;51140;45.340;5.980;2023-01-05T08:05:08;10.75;;;5.05;;
64712;SDS011;51140;45.340;5.980;2023-01-05T08:07:34;13.63;;;6.18;;
64712;SDS011;51140;45.340;5.980;2023-01-05T08:10:00;14.43;;;5.55;;
64712;SDS011;51140;45.340;5.980;2023-01-05T08:12:44;14.15;;;6.55;;
64712;SDS011;51140;45.340;5.980;2023-01-05T08:15:28;10.18;;;5.80;;
64712;SDS011;51140;45.340;5.980;2023-01-05T08:17:53;10.60;;;5.22;;
64712;SDS011;51140;45.340;5.980;2023-01-05T08:20:19;8.48;;;3.35;;
64712;SDS011;51140;45.340;5.980;2023-01-05T08:22:48;8.00;;;3.15;;
64712;SDS011;51140;45.340;5.980;2023-01-05T08:25:15;7.32;;;3.50;;
64712;SDS011;51140;45.340;5.980;2023-01-05T08:27:40;9.98;;;4.10;;
64712;SDS011;51140;45.340;5.980;2023-01-05T08:30:06;8.98;;;4.18;;
64712;SDS011;51140;45.340;5.980;2023-01-05T08:32:32;9.23;;;3.65;;
64712;SDS011;51140;45.340;5.980;2023-01-05T08:34:57;8.38;;;3.00;;
64712;SDS011;51140;45.340;5.980;2023-01-05T08:37:22;26.88;;;10.70;;
64712;SDS011;51140;45.340;5.980;2023-01-05T08:39:48;15.27;;;5.78;;
64712;SDS011;51140;45.340;5.980;2023-01-05T08:42:13;16.17;;;6.75;;
64712;SDS011;51140;45.340;5.980;2023-01-05T08:44:38;14.25;;;6.95;;
64712;SDS011;51140;45.340;5.980;2023-01-05T08:47:04;14.93;;;7.53;;
64712;SDS011;51140;45.340;5.980;2023-01-05T08:49:30;12.82;;;6.15;;
64712;SDS011;51140;45.340;5.980;2023-01-05T08:51:55;12.10;;;5.82;;
64712;SDS011;51140;45.340;5.980;2023-01-05T08:54:20;11.32;;;5.40;;
64712;SDS011;51140;45.340;5.980;2023-01-05T08:56:46;8.55;;;4.00;;
64712;SDS011;51140;45.340;5.980;2023-01-05T08:59:14;8.57;;;4.03;;
64712;SDS011;51140;45.340;5.980;2023-01-05T09:01:40;8.55;;;3.80;;
64712;SDS011;51140;45.340;5.980;2023-01-05T09:04:05;13.15;;;6.28;;
64712;SDS011;51140;45.340;5.980;2023-01-05T09:06:30;11.57;;;5.53;;
64712;SDS011;51140;45.340;5.980;2023-01-05T09:08:56;11.80;;;5.22;;
64712;SDS011;51140;45.340;5.980;2023-01-05T09:11:22;12.02;;;5.28;;
64712;SDS011;51140;45.340;5.980;2023-01-05T09:13:53;10.40;;;4.50;;
64712;SDS011;51140;45.340;5.980;2023-01-05T09:16:21;8.63;;;4.10;;
64712;SDS011;51140;45.340;5.980;2023-01-05T09:18:49;9.98;;;3.75;;
64712;SDS011;51140;45.340;5.980;2023-01-05T09:21:15;8.88;;;4.13;;
64712;SDS011;51140;45.340;5.980;2023-01-05T09:23:41;10.80;;;5.47;;
64712;SDS011;51140;45.340;5.980;2023-01-05T09:26:07;8.13;;;3.92;;
64712;SDS011;51140;45.340;5.980;2023-01-05T09:28:35;8.98;;;3.67;;
64712;SDS011;51140;45.340;5.980;2023-01-05T09:31:20;8.95;;;3.85;;
64712;SDS011;51140;45.340;5.980;2023-01-05T09:33:47;8.82;;;3.90;;
64712;SDS011;51140;45.340;5.980;2023-01-05T09:36:13;17.02;;;7.82;;
64712;SDS011;51140;45.340;5.980;2023-01-05T09:38:40;13.48;;;6.85;;
64712;SDS011;51140;45.340;5.980;2023-01-05T09:43:56;10.88;;;4.93;;
64712;SDS011;51140;45.340;5.980;2023-01-05T09:46:25;10.57;;;4.88;;
64712;SDS011;51140;45.340;5.980;2023-01-05T09:48:57;10.15;;;5.43;;
64712;SDS011;51140;45.340;5.980;2023-01-05T09:51:26;8.60;;;4.45;;
64712;SDS011;51140;45.340;5.980;2023-01-05T09:53:52;8.30;;;3.75;;
64712;SDS011;51140;45.340;5.980;2023-01-05T09:58:59;5.80;;;2.30;;
64712;SDS011;51140;45.340;5.980;2023-01-05T10:01:30;8.63;;;3.20;;
64712;SDS011;51140;45.340;5.980;2023-01-05T10:04:20;10.27;;;4.50;;
64712;SDS011;51140;45.340;5.980;2023-01-05T10:06:51;7.50;;;3.88;;
64712;SDS011;51140;45.340;5.980;2023-01-05T10:09:20;10.18;;;4.93;;
64712;SDS011;51140;45.340;5.980;2023-01-05T10:15:01;6.47;;;2.40;;
64712;SDS011;51140;45.340;5.980;2023-01-05T10:17:33;6.82;;;2.22;;
64712;SDS011;51140;45.340;5.980;2023-01-05T10:20:00;10.75;;;3.30;;
64712;SDS011;51140;45.340;5.980;2023-01-05T10:22:44;8.40;;;2.83;;
64712;SDS011;51140;45.340;5.980;2023-01-05T10:31:02;12.65;;;5.35;;
64712;SDS011;51140;45.340;5.980;2023-01-05T10:36:23;11.63;;;5.60;;
64712;SDS011;51140;45.340;5.980;2023-01-05T10:41:58;12.15;;;5.32;;
64712;SDS011;51140;45.340;5.980;2023-01-05T10:47:17;11.07;;;4.90;;
64712;SDS011;51140;45.340;5.980;2023-01-05T10:49:44;9.88;;;4.57;;
64712;SDS011;51140;45.340;5.980;2023-01-05T10:52:11;10.80;;;4.57;;
64712;SDS011;51140;45.340;5.980;2023-01-05T10:54:56;9.27;;;4.68;;
64712;SDS011;51140;45.340;5.980;2023-01-05T11:00:39;10.38;;;4.50;;
64712;SDS011;51140;45.340;5.980;2023-01-05T11:05:31;14.15;;;5.47;;
64712;SDS011;51140;45.340;5.980;2023-01-05T11:08:00;15.23;;;5.95;;
64712;SDS011;51140;45.340;5.980;2023-01-05T11:10:35;14.18;;;5.60;;
64712;SDS011;51140;45.340;5.980;2023-01-05T11:13:06;8.98;;;3.90;;
64712;SDS011;51140;45.340;5.980;2023-01-05T11:15:46;9.60;;;3.58;;
64712;SDS011;51140;45.340;5.980;2023-01-05T11:18:21;8.57;;;4.38;;
64712;SDS011;51140;45.340;5.980;2023-01-05T11:21:08;10.45;;;4.80;;
64712;SDS011;51140;45.340;5.980;2023-01-05T11:23:48;9.77;;;3.60;;
64712;SDS011;51140;45.340;5.980;2023-01-05T11:31:35;8.63;;;4.20;;
64712;SDS011;51140;45.340;5.980;2023-01-05T11:44:42;9.10;;;4.32;;
64712;SDS011;51140;45.340;5.980;2023-01-05T11:50:01;7.15;;;3.25;;
64712;SDS011;51140;45.340;5.980;2023-01-05T11:52:33;6.95;;;3.35;;
64712;SDS011;51140;45.340;5.980;2023-01-05T11:57:44;6.90;;;3.57;;
64712;SDS011;51140;45.340;5.980;2023-01-05T12:00:21;9.35;;;4.15;;
64712;SDS011;51140;45.340;5.980;2023-01-05T12:05:39;7.88;;;3.72;;
64712;SDS011;51140;45.340;5.980;2023-01-05T12:08:09;7.72;;;3.80;;
64712;SDS011;51140;45.340;5.980;2023-01-05T12:13:28;8.63;;;3.47;;
64712;SDS011;51140;45.340;5.980;2023-01-05T12:21:46;8.32;;;3.53;;
64712;SDS011;51140;45.340;5.980;2023-01-05T12:24:29;8.48;;;3.38;;
64712;SDS011;51140;45.340;5.980;2023-01-05T12:29:56;8.65;;;3.80;;
64712;SDS011;51140;45.340;5.980;2023-01-05T12:35:03;8.88;;;3.70;;
64712;SDS011;51140;45.340;5.980;2023-01-05T12:37:59;7.93;;;3.55;;
64712;SDS011;51140;45.340;5.980;2023-01-05T12:43:11;6.10;;;2.88;;
64712;SDS011;51140;45.340;5.980;2023-01-05T12:51:46;6.97;;;2.38;;
64712;SDS011;51140;45.340;5.980;2023-01-05T12:54:35;7.03;;;2.50;;
64712;SDS011;51140;45.340;5.980;2023-01-05T12:57:16;6.50;;;2.80;;
64712;SDS011;51140;45.340;5.980;2023-01-05T13:08:00;5.57;;;2.38;;
64712;SDS011;51140;45.340;5.980;2023-01-05T13:10:40;6.53;;;2.30;;
64712;SDS011;51140;45.340;5.980;2023-01-05T13:13:13;5.65;;;2.47;;
64712;SDS011;51140;45.340;5.980;2023-01-05T13:15:51;5.60;;;2.40;;
64712;SDS011;51140;45.340;5.980;2023-01-05T13:18:23;6.43;;;2.70;;
64712;SDS011;51140;45.340;5.980;2023-01-05T13:20:58;6.28;;;2.60;;
64712;SDS011;51140;45.340;5.980;2023-01-05T13:23:27;6.13;;;2.15;;
64712;SDS011;51140;45.340;5.980;2023-01-05T13:26:06;5.38;;;2.60;;
64712;SDS011;51140;45.340;5.980;2023-01-05T13:28:38;6.03;;;2.60;;
64712;SDS011;51140;45.340;5.980;2023-01-05T13:47:22;7.25;;;3.20;;
64712;SDS011;51140;45.340;5.980;2023-01-05T13:50:20;7.85;;;3.20;;
64712;SDS011;51140;45.340;5.980;2023-01-05T13:55:55;8.43;;;4.45;;
64712;SDS011;51140;45.340;5.980;2023-01-05T14:01:01;8.93;;;4.57;;
64712;SDS011;51140;45.340;5.980;2023-01-05T14:04:14;9.63;;;4.57;;
64712;SDS011;51140;45.340;5.980;2023-01-05T14:06:20;9.48;;;4.80;;
64712;SDS011;51140;45.340;5.980;2023-01-05T14:08:57;10.43;;;4.70;;
64712;SDS011;51140;45.340;5.980;2023-01-05T14:11:32;8.57;;;4.22;;
64712;SDS011;51140;45.340;5.980;2023-01-05T14:13:58;7.53;;;3.92;;
64712;SDS011;51140;45.340;5.980;2023-01-05T14:27:10;8.00;;;3.33;;
64712;SDS011;51140;45.340;5.980;2023-01-05T14:32:29;8.50;;;3.90;;
64712;SDS011;51140;45.340;5.980;2023-01-05T14:39:58;7.60;;;4.07;;
64712;SDS011;51140;45.340;5.980;2023-01-05T14:42:34;9.48;;;4.53;;
64712;SDS011;51140;45.340;5.980;2023-01-05T14:45:07;9.23;;;4.95;;
64712;SDS011;51140;45.340;5.980;2023-01-05T14:47:45;13.35;;;7.40;;
64712;SDS011;51140;45.340;5.980;2023-01-05T14:50:32;8.68;;;4.72;;
64712;SDS011;51140;45.340;5.980;2023-01-05T14:55:39;10.50;;;5.60;;
64712;SDS011;51140;45.340;5.980;2023-01-05T15:01:20;12.13;;;5.73;;
64712;SDS011;51140;45.340;5.980;2023-01-05T15:03:57;10.82;;;5.90;;
64712;SDS011;51140;45.340;5.980;2023-01-05T15:36:57;14.77;;;7.82;;
64712;SDS011;51140;45.340;5.980;2023-01-05T15:39:28;17.10;;;8.82;;
64712;SDS011;51140;45.340;5.980;2023-01-05T15:41:55;15.55;;;9.60;;
64712;SDS011;51140;45.340;5.980;2023-01-05T15:44:28;14.98;;;9.18;;
64712;SDS011;51140;45.340;5.980;2023-01-05T15:47:09;15.23;;;8.75;;
64712;SDS011;51140;45.340;5.980;2023-01-05T15:49:35;15.85;;;9.27;;
64712;SDS011;51140;45.340;5.980;2023-01-05T15:52:02;15.70;;;9.38;;
64712;SDS011;51140;45.340;5.980;2023-01-05T15:54:30;15.38;;;8.90;;
64712;SDS011;51140;45.340;5.980;2023-01-05T15:56:57;15.02;;;8.95;;
64712;SDS011;51140;45.340;5.980;2023-01-05T15:59:35;15.77;;;8.95;;
64712;SDS011;51140;45.340;5.980;2023-01-05T16:05:18;15.23;;;8.15;;
64712;SDS011;51140;45.340;5.980;2023-01-05T16:07:55;13.45;;;8.23;;
64712;SDS011;51140;45.340;5.980;2023-01-05T16:10:26;12.95;;;8.20;;
64712;SDS011;51140;45.340;5.980;2023-01-05T16:12:54;15.50;;;8.18;;
64712;SDS011;51140;45.340;5.980;2023-01-05T16:15:24;14.10;;;8.43;;
64712;SDS011;51140;45.340;5.980;2023-01-05T16:17:51;14.13;;;7.53;;
64712;SDS011;51140;45.340;5.980;2023-01-05T16:20:21;14.00;;;8.05;;
64712;SDS011;51140;45.340;5.980;2023-01-05T16:25:38;10.18;;;5.72;;
64712;SDS011;51140;45.340;5.980;2023-01-05T16:28:08;12.07;;;6.40;;
64712;SDS011;51140;45.340;5.980;2023-01-05T16:35:49;14.85;;;6.72;;
64712;SDS011;51140;45.340;5.980;2023-01-05T16:43:18;12.48;;;6.25;;
64712;SDS011;51140;45.340;5.980;2023-01-05T16:45:46;16.95;;;7.00;;
64712;SDS011;51140;45.340;5.980;2023-01-05T16:48:56;14.25;;;7.88;;
64712;SDS011;51140;45.340;5.980;2023-01-05T16:53:34;14.05;;;7.80;;
64712;SDS011;51140;45.340;5.980;2023-01-05T16:56:42;11.52;;;5.90;;
64712;SDS011;51140;45.340;5.980;2023-01-05T17:01:58;11.55;;;4.95;;
64712;SDS011;51140;45.340;5.980;2023-01-05T17:04:24;12.50;;;5.82;;
64712;SDS011;51140;45.340;5.980;2023-01-05T17:06:50;12.43;;;6.60;;
64712;SDS011;51140;45.340;5.980;2023-01-05T17:11:44;12.75;;;7.85;;
64712;SDS011;51140;45.340;5.980;2023-01-05T17:14:10;14.35;;;7.53;;
64712;SDS011;51140;45.340;5.980;2023-01-05T17:16:37;11.25;;;5.32;;
64712;SDS011;51140;45.340;5.980;2023-01-05T17:19:08;12.45;;;5.75;;
64712;SDS011;51140;45.340;5.980;2023-01-05T17:21:36;20.83;;;8.02;;
64712;SDS011;51140;45.340;5.980;2023-01-05T17:24:07;15.75;;;8.25;;
64712;SDS011;51140;45.340;5.980;2023-01-05T17:26:36;13.32;;;6.72;;
64712;SDS011;51140;45.340;5.980;2023-01-05T17:29:05;13.50;;;6.50;;
64712;SDS011;51140;45.340;5.980;2023-01-05T17:31:31;14.52;;;7.32;;
64712;SDS011;51140;45.340;5.980;2023-01-05T17:33:57;14.68;;;8.63;;
64712;SDS011;51140;45.340;5.980;2023-01-05T17:36:27;12.07;;;6.95;;
64712;SDS011;51140;45.340;5.980;2023-01-05T17:38:56;11.68;;;5.88;;
64712;SDS011;51140;45.340;5.980;2023-01-05T17:41:21;15.13;;;6.22;;
64712;SDS011;51140;45.340;5.980;2023-01-05T17:43:47;9.15;;;4.93;;
64712;SDS011;51140;45.340;5.980;2023-01-05T17:46:19;9.27;;;5.13;;
64712;SDS011;51140;45.340;5.980;2023-01-05T17:48:54;10.18;;;5.13;;
64712;SDS011;51140;45.340;5.980;2023-01-05T17:51:22;11.70;;;5.45;;
64712;SDS011;51140;45.340;5.980;2023-01-05T17:53:48;13.10;;;7.65;;
64712;SDS011;51140;45.340;5.980;2023-01-05T17:56:13;12.77;;;5.60;;
64712;SDS011;51140;45.340;5.980;2023-01-05T17:58:38;13.93;;;5.85;;
64712;SDS011;51140;45.340;5.980;2023-01-05T18:01:04;12.52;;;7.55;;
64712;SDS011;51140;45.340;5.980;2023-01-05T18:03:30;14.93;;;8.77;;
64712;SDS011;51140;45.340;5.980;2023-01-05T18:05:58;15.88;;;8.40;;
64712;SDS011;51140;45.340;5.980;2023-01-05T18:08:24;13.32;;;7.97;;
64712;SDS011;51140;45.340;5.980;2023-01-05T18:10:50;11.23;;;5.97;;
64712;SDS011;51140;45.340;5.980;2023-01-05T18:13:15;14.07;;;7.10;;
64712;SDS011;51140;45.340;5.980;2023-01-05T18:15:41;12.75;;;7.00;;
64712;SDS011;51140;45.340;5.980;2023-01-05T18:18:10;12.38;;;4.75;;
64712;SDS011;51140;45.340;5.980;2023-01-05T18:20:40;9.77;;;4.60;;
64712;SDS011;51140;45.340;5.980;2023-01-05T18:23:06;8.98;;;4.38;;
64712;SDS011;51140;45.340;5.980;2023-01-05T18:25:32;11.63;;;7.15;;